createdAt,value
2019-06-26T00:00:45.849Z,22.20
2019-06-26T00:01:45.869Z,14.60
2019-06-26T00:02:45.892Z,12.40
2019-06-26T00:03:45.897Z,15.90
2019-06-26T00:04:45.922Z,14.80
2019-06-26T00:05:45.917Z,13.20
2019-06-26T00:06:45.939Z,11.30
2019-06-26T00:07:45.958Z,12.60
2019-06-26T00:08:45.964Z,12.70
2019-06-26T00:09:45.977Z,12.80
2019-06-26T00:10:45.993Z,16.60
2019-06-26T00:11:46.008Z,11.60
2019-06-26T00:12:46.018Z,12.40
2019-06-26T00:13:46.042Z,11.00
2019-06-26T00:14:46.056Z,10.40
2019-06-26T00:15:46.149Z,10.70
2019-06-26T00:16:46.086Z,10.60
2019-06-26T00:17:46.094Z,12.80
2019-06-26T00:18:46.111Z,10.70
2019-06-26T00:19:46.118Z,10.70
2019-06-26T00:20:46.130Z,11.20
2019-06-26T00:21:46.148Z,11.20
2019-06-26T00:22:46.161Z,12.70
2019-06-26T00:23:46.564Z,12.30
2019-06-26T00:24:46.190Z,12.50
2019-06-26T00:25:46.204Z,10.90
2019-06-26T00:26:46.212Z,11.60
2019-06-26T00:27:46.231Z,9.60
2019-06-26T00:28:46.249Z,11.30
2019-06-26T00:29:46.261Z,14.40
2019-06-26T00:30:46.356Z,13.30
2019-06-26T00:31:46.293Z,11.60
2019-06-26T00:32:46.305Z,11.20
2019-06-26T00:33:46.318Z,12.80
2019-06-26T00:34:46.327Z,14.50
2019-06-26T00:35:46.340Z,13.30
2019-06-26T00:36:46.359Z,11.20
2019-06-26T00:37:46.368Z,11.40
2019-06-26T00:38:46.384Z,12.00
2019-06-26T00:39:46.406Z,12.40
2019-06-26T00:40:46.477Z,12.00
2019-06-26T00:41:46.425Z,13.90
2019-06-26T00:42:46.447Z,12.90
2019-06-26T00:43:46.455Z,13.10
2019-06-26T00:44:46.467Z,12.90
2019-06-26T00:45:46.483Z,14.50
2019-06-26T00:46:46.499Z,15.00
2019-06-26T00:47:46.520Z,12.20
2019-06-26T00:48:46.526Z,12.50
2019-06-26T00:49:46.535Z,12.90
2019-06-26T00:50:46.550Z,13.50
2019-06-26T00:51:46.589Z,14.30
2019-06-26T00:52:46.573Z,12.60
2019-06-26T00:53:46.591Z,19.50
2019-06-26T00:54:46.614Z,20.20
2019-06-26T00:55:46.623Z,25.10
2019-06-26T00:56:46.634Z,15.00
2019-06-26T00:57:46.649Z,17.50
2019-06-26T00:58:46.674Z,14.00
2019-06-26T00:59:46.675Z,20.90
2019-06-26T01:00:46.690Z,14.60
2019-06-26T01:01:46.713Z,13.90
2019-06-26T01:02:46.719Z,15.50
2019-06-26T01:03:46.736Z,16.10
2019-06-26T01:04:46.742Z,15.30
2019-06-26T01:05:46.767Z,16.10
2019-06-26T01:06:46.774Z,15.40
2019-06-26T01:07:46.790Z,16.80
2019-06-26T01:08:46.835Z,16.40
2019-06-26T01:09:46.816Z,16.40
2019-06-26T01:10:46.828Z,17.10
2019-06-26T01:11:46.848Z,16.80
2019-06-26T01:12:46.850Z,15.60
2019-06-26T01:13:57.795Z,18.90
2019-06-26T01:14:46.883Z,16.00
2019-06-26T01:15:46.894Z,16.30
2019-06-26T01:16:46.911Z,16.00
2019-06-26T01:17:46.935Z,16.30
2019-06-26T01:18:46.940Z,16.50
2019-06-26T01:19:46.953Z,17.30
2019-06-26T01:20:46.962Z,17.60
2019-06-26T01:21:46.988Z,16.60
2019-06-26T01:22:46.995Z,16.10
2019-06-26T01:23:47.081Z,16.60
2019-06-26T01:24:47.028Z,16.90
2019-06-26T01:25:47.027Z,16.40
2019-06-26T01:26:47.045Z,15.90
2019-06-26T01:27:47.062Z,16.20
2019-06-26T01:28:47.074Z,16.90
2019-06-26T01:29:47.087Z,16.70
2019-06-26T01:30:47.109Z,17.00
2019-06-26T01:31:47.112Z,17.70
2019-06-26T01:32:47.126Z,16.20
2019-06-26T01:33:47.140Z,16.80
2019-06-26T01:34:47.170Z,17.30
2019-06-26T01:35:47.169Z,17.40
2019-06-26T01:36:47.178Z,17.20
2019-06-26T01:37:47.196Z,17.70
2019-06-26T01:38:47.223Z,17.70
2019-06-26T01:39:47.223Z,17.60
2019-06-26T01:40:47.233Z,16.90
2019-06-26T01:41:47.253Z,17.00
2019-06-26T01:42:47.274Z,16.10
2019-06-26T01:43:47.272Z,17.30
2019-06-26T01:44:47.291Z,19.00
2019-06-26T01:45:47.310Z,17.60
2019-06-26T01:46:47.317Z,17.70
2019-06-26T01:47:47.328Z,17.50
2019-06-26T01:48:47.351Z,16.60
2019-06-26T01:49:47.361Z,20.60
2019-06-26T01:50:47.378Z,17.20
2019-06-26T01:51:47.390Z,18.40
2019-06-26T01:52:47.401Z,16.90
2019-06-26T01:53:47.416Z,17.40
2019-06-26T01:54:47.429Z,17.50
2019-06-26T01:55:47.454Z,18.30
2019-06-26T01:56:47.453Z,17.80
2019-06-26T01:57:47.464Z,18.40
2019-06-26T01:58:47.479Z,17.40
2019-06-26T01:59:47.496Z,17.60
2019-06-26T02:00:47.680Z,18.40
2019-06-26T02:01:47.521Z,19.20
2019-06-26T02:02:47.531Z,19.60
2019-06-26T02:03:47.551Z,18.90
2019-06-26T02:04:47.564Z,18.70
2019-06-26T02:05:47.595Z,19.30
2019-06-26T02:06:47.586Z,18.70
2019-06-26T02:07:47.607Z,19.60
2019-06-26T02:08:47.739Z,19.80
2019-06-26T02:09:47.627Z,19.90
2019-06-26T02:10:47.658Z,20.40
2019-06-26T02:11:47.665Z,19.70
2019-06-26T02:12:47.669Z,19.10
2019-06-26T02:13:47.679Z,20.30
2019-06-26T02:14:47.698Z,21.50
2019-06-26T02:15:47.722Z,21.50
2019-06-26T02:16:47.733Z,22.10
2019-06-26T02:17:47.737Z,22.40
2019-06-26T02:18:47.754Z,20.90
2019-06-26T02:19:47.765Z,21.20
2019-06-26T02:20:47.768Z,21.00
2019-06-26T02:21:47.788Z,21.50
2019-06-26T02:22:49.631Z,22.80
2019-06-26T02:23:47.821Z,20.10
2019-06-26T02:24:47.836Z,21.40
2019-06-26T02:25:47.845Z,20.30
2019-06-26T02:26:47.859Z,21.40
2019-06-26T02:27:47.868Z,20.20
2019-06-26T02:28:47.890Z,19.80
2019-06-26T02:29:47.897Z,21.00
2019-06-26T02:30:48.040Z,20.80
2019-06-26T02:31:47.923Z,21.30
2019-06-26T02:32:47.938Z,21.70
2019-06-26T02:33:47.955Z,21.80
2019-06-26T02:34:47.974Z,22.80
2019-06-26T02:35:47.987Z,22.80
2019-06-26T02:36:47.989Z,23.00
2019-06-26T02:37:48.013Z,23.80
2019-06-26T02:38:48.018Z,23.10
2019-06-26T02:39:48.033Z,24.00
2019-06-26T02:40:48.043Z,24.20
2019-06-26T02:41:48.066Z,23.90
2019-06-26T02:42:48.102Z,23.10
2019-06-26T02:43:48.124Z,24.70
2019-06-26T02:44:53.919Z,22.80
2019-06-26T02:45:48.113Z,24.20
2019-06-26T02:46:48.126Z,22.70
2019-06-26T02:47:48.139Z,23.10
2019-06-26T02:48:48.153Z,23.00
2019-06-26T02:49:48.175Z,23.60
2019-06-26T02:50:48.224Z,23.50
2019-06-26T02:51:48.199Z,23.00
2019-06-26T02:52:48.204Z,23.60
2019-06-26T02:53:48.219Z,22.80
2019-06-26T02:54:48.229Z,23.30
2019-06-26T02:55:48.242Z,23.80
2019-06-26T02:56:48.257Z,23.50
2019-06-26T02:57:48.269Z,23.40
2019-06-26T02:58:48.304Z,23.90
2019-06-26T02:59:48.310Z,23.50
2019-06-26T03:00:48.316Z,24.70
2019-06-26T03:01:48.327Z,23.80
2019-06-26T03:02:48.343Z,23.70
2019-06-26T03:03:48.353Z,25.20
2019-06-26T03:04:48.371Z,25.50
2019-06-26T03:05:48.377Z,23.70
2019-06-26T03:06:48.387Z,25.70
2019-06-26T03:07:48.421Z,23.50
2019-06-26T03:08:48.433Z,23.20
2019-06-26T03:09:48.427Z,23.40
2019-06-26T03:10:48.439Z,24.30
2019-06-26T03:11:48.458Z,23.10
2019-06-26T03:12:48.473Z,22.60
2019-06-26T03:13:48.480Z,22.60
2019-06-26T03:14:48.528Z,24.60
2019-06-26T03:15:50.644Z,26.40
2019-06-26T03:16:48.535Z,23.60
2019-06-26T03:17:55.358Z,22.70
2019-06-26T03:18:48.561Z,22.00
2019-06-26T03:19:48.568Z,23.30
2019-06-26T03:20:48.584Z,23.70
2019-06-26T03:21:48.600Z,23.40
2019-06-26T03:22:48.601Z,22.70
2019-06-26T03:23:48.614Z,23.00
2019-06-26T03:24:48.625Z,22.30
2019-06-26T03:25:48.642Z,21.60
2019-06-26T03:26:48.663Z,21.80
2019-06-26T03:27:48.664Z,24.10
2019-06-26T03:28:48.829Z,21.80
2019-06-26T03:29:48.689Z,22.70
2019-06-26T03:30:48.706Z,23.90
2019-06-26T03:31:48.719Z,23.70
2019-06-26T03:32:48.733Z,23.40
2019-06-26T03:33:48.772Z,25.00
2019-06-26T03:34:48.778Z,24.60
2019-06-26T03:35:48.778Z,24.10
2019-06-26T03:36:48.791Z,24.50
2019-06-26T03:37:48.802Z,27.70
2019-06-26T03:38:48.814Z,24.70
2019-06-26T03:39:48.826Z,24.10
2019-06-26T03:40:48.847Z,22.40
2019-06-26T03:41:48.848Z,26.50
2019-06-26T03:42:48.865Z,24.40
2019-06-26T03:43:48.944Z,31.70
2019-06-26T03:44:48.922Z,25.80
2019-06-26T03:45:48.914Z,23.90
2019-06-26T03:46:48.916Z,24.20
2019-06-26T03:47:48.929Z,23.20
2019-06-26T03:48:48.946Z,24.00
2019-06-26T03:49:48.953Z,24.50
2019-06-26T03:50:48.961Z,24.70
2019-06-26T03:51:48.999Z,24.20
2019-06-26T03:52:49.008Z,23.90
2019-06-26T03:53:49.015Z,23.90
2019-06-26T03:54:49.022Z,29.30
2019-06-26T03:55:49.044Z,24.70
2019-06-26T03:56:49.057Z,25.30
2019-06-26T03:57:49.062Z,24.70
2019-06-26T03:58:49.080Z,26.20
2019-06-26T03:59:49.096Z,24.60
2019-06-26T04:00:49.098Z,25.40
2019-06-26T04:01:49.127Z,26.80
2019-06-26T04:02:49.126Z,27.10
2019-06-26T04:03:49.146Z,26.30
2019-06-26T04:04:49.149Z,25.10
2019-06-26T04:05:49.166Z,25.40
2019-06-26T04:06:49.181Z,23.90
2019-06-26T04:07:49.195Z,25.60
2019-06-26T04:08:49.201Z,24.70
2019-06-26T04:09:49.219Z,25.60
2019-06-26T04:10:49.236Z,24.80
2019-06-26T04:11:49.303Z,25.40
2019-06-26T04:12:49.269Z,25.30
2019-06-26T04:13:49.334Z,25.40
2019-06-26T04:14:49.287Z,25.00
2019-06-26T04:15:51.032Z,26.20
2019-06-26T04:16:49.318Z,26.10
2019-06-26T04:17:49.326Z,26.50
2019-06-26T04:18:49.334Z,26.10
2019-06-26T04:19:49.347Z,25.00
2019-06-26T04:20:49.357Z,26.10
2019-06-26T04:21:49.375Z,25.80
2019-06-26T04:22:49.385Z,26.50
2019-06-26T04:23:49.401Z,26.90
2019-06-26T04:24:49.412Z,26.60
2019-06-26T04:25:49.433Z,26.60
2019-06-26T04:26:49.443Z,28.00
2019-06-26T04:27:49.455Z,28.60
2019-06-26T04:28:49.468Z,29.20
2019-06-26T04:29:49.534Z,28.00
2019-06-26T04:30:49.497Z,27.40
2019-06-26T04:31:49.511Z,27.40
2019-06-26T04:32:49.520Z,27.50
2019-06-26T04:33:49.533Z,27.10
2019-06-26T04:34:49.547Z,28.50
2019-06-26T04:35:49.570Z,28.90
2019-06-26T04:36:49.572Z,28.40
2019-06-26T04:37:49.589Z,29.60
2019-06-26T04:38:49.598Z,30.50
2019-06-26T04:39:49.614Z,30.00
2019-06-26T04:40:49.627Z,29.80
2019-06-26T04:41:49.636Z,29.50
2019-06-26T04:42:49.653Z,29.10
2019-06-26T04:43:49.663Z,29.80
2019-06-26T04:44:49.678Z,30.50
2019-06-26T04:45:58.195Z,29.40
2019-06-26T04:46:49.705Z,29.30
2019-06-26T04:47:49.719Z,29.10
2019-06-26T04:48:49.732Z,30.10
2019-06-26T04:49:49.743Z,31.40
2019-06-26T04:50:49.767Z,31.30
2019-06-26T04:51:49.769Z,31.00
2019-06-26T04:52:49.787Z,32.00
2019-06-26T04:53:49.797Z,31.50
2019-06-26T04:54:49.810Z,32.30
2019-06-26T04:55:49.824Z,31.60
2019-06-26T04:56:49.854Z,32.70
2019-06-26T04:57:49.849Z,31.90
2019-06-26T04:58:49.868Z,34.30
2019-06-26T04:59:49.875Z,32.40
2019-06-26T05:00:49.887Z,32.50
2019-06-26T05:01:49.907Z,32.40
2019-06-26T05:02:49.916Z,33.10
2019-06-26T05:03:49.957Z,34.00
2019-06-26T05:04:49.942Z,33.20
2019-06-26T05:05:49.955Z,34.40
2019-06-26T05:06:49.984Z,32.00
2019-06-26T05:07:50.004Z,37.70
2019-06-26T05:08:49.996Z,32.90
2019-06-26T05:09:50.013Z,33.90
2019-06-26T05:10:50.044Z,35.00
2019-06-26T05:11:50.034Z,33.90
2019-06-26T05:12:50.053Z,35.00
2019-06-26T05:13:50.065Z,34.70
2019-06-26T05:14:50.076Z,35.00
2019-06-26T05:15:50.093Z,33.70
2019-06-26T05:16:50.122Z,34.60
2019-06-26T05:17:50.117Z,34.90
2019-06-26T05:18:50.131Z,35.20
2019-06-26T05:19:50.147Z,34.60
2019-06-26T05:20:50.156Z,35.00
2019-06-26T05:21:50.169Z,33.30
2019-06-26T05:22:50.185Z,34.60
2019-06-26T05:23:50.198Z,35.90
2019-06-26T05:24:50.208Z,33.10
2019-06-26T05:25:50.229Z,34.80
2019-06-26T05:26:50.238Z,35.40
2019-06-26T05:27:50.249Z,37.00
2019-06-26T05:28:50.262Z,35.40
2019-06-26T05:29:50.278Z,37.30
2019-06-26T05:30:50.295Z,37.70
2019-06-26T05:31:50.313Z,38.70
2019-06-26T05:32:50.317Z,36.40
2019-06-26T05:33:50.360Z,38.60
2019-06-26T05:34:50.359Z,42.30
2019-06-26T05:35:50.359Z,42.10
2019-06-26T05:36:50.377Z,42.50
2019-06-26T05:37:50.386Z,43.50
2019-06-26T05:38:50.404Z,45.20
2019-06-26T05:39:53.811Z,47.20
2019-06-26T05:40:50.430Z,46.60
2019-06-26T05:41:50.439Z,46.30
2019-06-26T05:42:50.460Z,47.70
2019-06-26T05:43:50.495Z,48.70
2019-06-26T05:44:50.492Z,49.70
2019-06-26T05:45:50.500Z,51.50
2019-06-26T05:46:50.507Z,49.30
2019-06-26T05:47:50.526Z,51.70
2019-06-26T05:48:50.544Z,50.90
2019-06-26T05:49:50.549Z,51.60
2019-06-26T05:50:50.568Z,54.10
2019-06-26T05:51:50.625Z,52.00
2019-06-26T05:52:50.612Z,51.80
2019-06-26T05:53:50.605Z,53.00
2019-06-26T05:54:50.617Z,54.60
2019-06-26T05:55:50.638Z,55.30
2019-06-26T05:56:50.649Z,53.00
2019-06-26T05:57:50.661Z,52.80
2019-06-26T05:58:50.680Z,52.80
2019-06-26T05:59:50.694Z,54.60
2019-06-26T06:00:50.711Z,55.10
2019-06-26T06:01:50.713Z,52.90
2019-06-26T06:02:53.795Z,54.20
2019-06-26T06:03:50.735Z,55.20
2019-06-26T06:04:50.757Z,53.20
2019-06-26T06:05:50.792Z,52.80
2019-06-26T06:06:50.798Z,52.30
2019-06-26T06:07:50.799Z,52.40
2019-06-26T06:08:50.815Z,52.10
2019-06-26T06:09:50.832Z,51.90
2019-06-26T06:10:50.843Z,53.50
2019-06-26T06:11:50.855Z,51.70
2019-06-26T06:12:50.871Z,51.60
2019-06-26T06:13:50.883Z,51.30
2019-06-26T06:14:50.898Z,54.00
2019-06-26T06:15:50.912Z,52.20
2019-06-26T06:16:50.946Z,51.60
2019-06-26T06:17:50.940Z,51.50
2019-06-26T06:18:50.954Z,53.00
2019-06-26T06:19:50.962Z,51.60
2019-06-26T06:20:50.975Z,51.90
2019-06-26T06:21:50.998Z,52.30
2019-06-26T06:22:51.005Z,52.00
2019-06-26T06:23:51.023Z,50.50
2019-06-26T06:24:51.036Z,49.80
2019-06-26T06:25:51.049Z,53.00
2019-06-26T06:26:51.062Z,52.00
2019-06-26T06:27:51.078Z,52.90
2019-06-26T06:28:51.097Z,53.00
2019-06-26T06:29:51.100Z,51.40
2019-06-26T06:30:51.119Z,55.10
2019-06-26T06:31:51.130Z,54.30
2019-06-26T06:32:51.145Z,54.70
2019-06-26T06:33:51.159Z,52.50
2019-06-26T06:34:51.176Z,53.40
2019-06-26T06:35:51.188Z,52.40
2019-06-26T06:36:51.202Z,50.20
2019-06-26T06:37:51.211Z,50.90
2019-06-26T06:38:51.292Z,50.40
2019-06-26T06:39:51.246Z,50.90
2019-06-26T06:40:51.259Z,50.40
2019-06-26T06:41:51.272Z,49.20
2019-06-26T06:42:51.288Z,47.10
2019-06-26T06:43:51.305Z,45.40
2019-06-26T06:44:51.326Z,47.20
2019-06-26T06:45:51.333Z,47.50
2019-06-26T06:47:03.404Z,46.40
2019-06-26T06:47:51.369Z,47.20
2019-06-26T06:48:51.381Z,47.30
2019-06-26T06:49:51.399Z,45.70
2019-06-26T06:50:51.412Z,46.20
2019-06-26T06:51:51.438Z,45.50
2019-06-26T06:52:51.447Z,44.40
2019-06-26T06:53:51.458Z,43.20
2019-06-26T06:54:51.480Z,43.70
2019-06-26T06:55:51.497Z,46.10
2019-06-26T06:56:51.512Z,42.70
2019-06-26T06:57:51.530Z,44.40
2019-06-26T06:58:51.543Z,42.60
2019-06-26T06:59:51.555Z,43.10
2019-06-26T07:00:51.576Z,43.80
2019-06-26T07:01:51.590Z,42.30
2019-06-26T07:02:51.607Z,39.80
2019-06-26T07:03:51.633Z,39.60
2019-06-26T07:04:51.642Z,40.20
2019-06-26T07:05:51.669Z,38.50
2019-06-26T07:06:51.680Z,39.80
2019-06-26T07:07:51.700Z,39.60
2019-06-26T07:08:51.711Z,39.50
2019-06-26T07:09:51.725Z,36.80
2019-06-26T07:10:51.742Z,37.80
2019-06-26T07:11:51.781Z,38.70
2019-06-26T07:12:51.874Z,37.80
2019-06-26T07:13:51.783Z,36.40
2019-06-26T07:14:51.811Z,35.80
2019-06-26T07:15:51.824Z,36.00
2019-06-26T07:16:51.850Z,35.00
2019-06-26T07:17:51.860Z,35.00
2019-06-26T07:18:51.878Z,35.10
2019-06-26T07:19:51.900Z,34.20
2019-06-26T07:20:51.908Z,33.30
2019-06-26T07:21:51.927Z,32.50
2019-06-26T07:22:51.944Z,30.70
2019-06-26T07:23:51.962Z,31.30
2019-06-26T07:24:51.978Z,32.40
2019-06-26T07:25:52.021Z,32.40
2019-06-26T07:26:52.017Z,31.00
2019-06-26T07:27:52.034Z,31.90
2019-06-26T07:28:52.045Z,30.60
2019-06-26T07:29:52.073Z,30.20
2019-06-26T07:30:52.085Z,31.00
2019-06-26T07:31:52.101Z,32.00
2019-06-26T07:32:52.120Z,31.80
2019-06-26T07:33:55.414Z,31.20
2019-06-26T07:34:52.167Z,29.80
2019-06-26T07:35:52.173Z,27.20
2019-06-26T07:36:52.197Z,27.60
2019-06-26T07:37:52.205Z,26.20
2019-06-26T07:38:52.234Z,27.00
2019-06-26T07:39:52.239Z,26.00
2019-06-26T07:40:52.256Z,25.00
2019-06-26T07:41:52.281Z,25.90
2019-06-26T07:42:52.291Z,26.20
2019-06-26T07:43:52.307Z,24.40
2019-06-26T07:44:52.324Z,26.20
2019-06-26T07:45:52.349Z,27.20
2019-06-26T07:46:52.415Z,28.10
2019-06-26T07:47:52.377Z,24.20
2019-06-26T07:48:52.398Z,25.70
2019-06-26T07:49:52.416Z,26.80
2019-06-26T07:50:52.560Z,25.20
2019-06-26T07:51:52.462Z,25.40
2019-06-26T07:52:52.467Z,26.90
2019-06-26T07:53:52.486Z,26.90
2019-06-26T07:54:52.508Z,24.90
2019-06-26T07:55:52.565Z,25.30
2019-06-26T07:56:52.542Z,23.90
2019-06-26T07:57:52.566Z,25.80
2019-06-26T07:58:52.580Z,25.40
2019-06-26T07:59:52.596Z,25.20
2019-06-26T08:00:52.609Z,25.40
2019-06-26T08:01:52.631Z,25.60
2019-06-26T08:02:52.668Z,26.80
2019-06-26T08:03:52.671Z,25.10
2019-06-26T08:04:52.701Z,24.00
2019-06-26T08:05:52.705Z,22.70
2019-06-26T08:06:52.719Z,22.20
2019-06-26T08:07:52.741Z,24.80
2019-06-26T08:08:52.767Z,23.90
2019-06-26T08:09:52.776Z,24.80
2019-06-26T08:10:52.797Z,25.30
2019-06-26T08:11:52.812Z,24.20
2019-06-26T08:12:52.838Z,23.20
2019-06-26T08:13:52.859Z,22.30
2019-06-26T08:14:52.872Z,21.00
2019-06-26T08:15:52.892Z,20.10
2019-06-26T08:16:52.907Z,20.10
2019-06-26T08:18:00.713Z,20.80
2019-06-26T08:18:52.947Z,23.10
2019-06-26T08:19:52.962Z,22.80
2019-06-26T08:21:10.858Z,20.40
2019-06-26T08:21:52.996Z,21.80
2019-06-26T08:22:53.014Z,23.30
2019-06-26T08:23:53.092Z,24.10
2019-06-26T08:24:53.110Z,21.70
2019-06-26T08:25:53.088Z,22.70
2019-06-26T08:26:53.097Z,20.90
2019-06-26T08:27:53.115Z,20.50
2019-06-26T08:28:53.126Z,22.60
2019-06-26T08:29:53.145Z,23.60
2019-06-26T08:30:53.164Z,23.20
2019-06-26T08:31:53.186Z,21.40
2019-06-26T08:32:53.205Z,21.70
2019-06-26T08:33:53.227Z,21.70
2019-06-26T08:34:53.301Z,21.80
2019-06-26T08:35:53.275Z,19.60
2019-06-26T08:36:53.283Z,21.50
2019-06-26T08:38:08.886Z,21.90
2019-06-26T08:38:53.317Z,20.40
2019-06-26T08:39:53.350Z,19.60
2019-06-26T08:40:53.361Z,20.80
2019-06-26T08:41:53.382Z,21.40
2019-06-26T08:42:53.398Z,21.60
2019-06-26T08:43:53.418Z,21.00
2019-06-26T08:44:53.440Z,21.40
2019-06-26T08:45:53.459Z,22.70
2019-06-26T08:46:53.480Z,23.50
2019-06-26T08:47:53.496Z,22.60
2019-06-26T08:48:53.517Z,21.50
2019-06-26T08:49:53.532Z,21.00
2019-06-26T08:50:53.557Z,21.10
2019-06-26T08:51:53.578Z,22.90
2019-06-26T08:52:53.594Z,22.90
2019-06-26T08:53:53.614Z,23.10
2019-06-26T08:54:53.638Z,24.00
2019-06-26T08:55:53.654Z,22.60
2019-06-26T08:56:53.679Z,23.20
2019-06-26T08:57:53.692Z,24.30
2019-06-26T08:58:53.729Z,23.10
2019-06-26T08:59:53.745Z,22.70
2019-06-26T09:00:53.758Z,24.10
2019-06-26T09:01:53.778Z,23.00
2019-06-26T09:02:53.790Z,23.60
2019-06-26T09:03:53.813Z,22.90
2019-06-26T09:04:53.826Z,21.20
2019-06-26T09:05:53.849Z,24.00
2019-06-26T09:06:53.876Z,24.00
2019-06-26T09:07:53.911Z,22.10
2019-06-26T09:08:53.989Z,22.60
2019-06-26T09:09:53.934Z,23.50
2019-06-26T09:10:53.944Z,23.80
2019-06-26T09:11:53.964Z,23.70
2019-06-26T09:12:53.985Z,24.50
2019-06-26T09:13:54.011Z,23.40
2019-06-26T09:14:54.033Z,22.90
2019-06-26T09:15:54.044Z,24.70
2019-06-26T09:16:54.071Z,26.90
2019-06-26T09:17:54.086Z,28.20
2019-06-26T09:18:54.104Z,27.80
2019-06-26T09:19:54.124Z,26.40
2019-06-26T09:20:54.147Z,28.10
2019-06-26T09:21:54.164Z,28.20
2019-06-26T09:22:54.193Z,27.60
2019-06-26T09:23:54.203Z,28.30
2019-06-26T09:24:54.227Z,28.70
2019-06-26T09:25:54.245Z,29.00
2019-06-26T09:26:54.264Z,27.20
2019-06-26T09:27:54.283Z,27.00
2019-06-26T09:28:54.301Z,26.10
2019-06-26T09:29:54.439Z,30.10
2019-06-26T09:30:54.349Z,27.70
2019-06-26T09:31:54.370Z,27.90
2019-06-26T09:32:54.385Z,26.50
2019-06-26T09:33:54.403Z,29.10
2019-06-26T09:34:54.442Z,28.90
2019-06-26T09:35:54.439Z,27.90
2019-06-26T09:36:54.468Z,27.00
2019-06-26T09:37:54.496Z,27.40
2019-06-26T09:38:57.745Z,29.60
2019-06-26T09:39:54.518Z,28.90
2019-06-26T09:40:54.545Z,27.20
2019-06-26T09:41:54.563Z,30.30
2019-06-26T09:42:54.583Z,29.10
2019-06-26T09:43:54.601Z,30.60
2019-06-26T09:44:54.629Z,29.30
2019-06-26T09:45:54.639Z,28.80
2019-06-26T09:47:54.683Z,30.90
2019-06-26T09:48:54.701Z,28.60
2019-06-26T09:49:54.730Z,29.20
2019-06-26T09:50:54.744Z,27.90
2019-06-26T09:51:54.766Z,28.30
2019-06-26T09:52:54.786Z,27.10
2019-06-26T09:53:54.804Z,27.20
2019-06-26T09:54:54.824Z,25.30
2019-06-26T09:55:54.906Z,25.30
2019-06-26T09:56:54.888Z,24.40
2019-06-26T09:57:54.885Z,24.40
2019-06-26T09:58:54.903Z,24.00
2019-06-26T09:59:54.923Z,26.30
2019-06-26T10:00:54.951Z,26.40
2019-06-26T10:01:54.985Z,25.70
2019-06-26T10:02:54.985Z,26.10
2019-06-26T10:03:55.009Z,25.60
2019-06-26T10:04:55.025Z,24.80
2019-06-26T10:05:55.048Z,23.60
2019-06-26T10:06:55.070Z,24.10
2019-06-26T10:07:55.146Z,23.70
2019-06-26T10:08:55.105Z,24.70
2019-06-26T10:09:55.177Z,26.70
2019-06-26T10:10:55.146Z,26.20
2019-06-26T10:11:55.178Z,26.40
2019-06-26T10:12:55.189Z,26.10
2019-06-26T10:13:55.373Z,25.20
2019-06-26T10:14:55.235Z,25.20
2019-06-26T10:15:55.253Z,21.40
2019-06-26T10:16:55.273Z,21.70
2019-06-26T10:17:55.300Z,22.30
2019-06-26T10:19:09.051Z,25.70
2019-06-26T10:19:55.337Z,28.00
2019-06-26T10:20:55.354Z,26.60
2019-06-26T10:21:55.377Z,30.90
2019-06-26T10:22:55.394Z,32.50
2019-06-26T10:23:55.482Z,30.50
2019-06-26T10:24:55.434Z,31.30
2019-06-26T10:25:55.467Z,33.30
2019-06-26T10:26:55.481Z,32.60
2019-06-26T10:27:55.498Z,31.60
2019-06-26T10:28:55.537Z,30.90
2019-06-26T10:29:55.611Z,32.70
2019-06-26T10:30:55.559Z,33.00
2019-06-26T10:31:55.595Z,32.50
2019-06-26T10:32:55.645Z,33.20
2019-06-26T10:33:55.622Z,31.40
2019-06-26T10:34:55.657Z,30.60
2019-06-26T10:35:55.664Z,32.30
2019-06-26T10:36:55.689Z,31.80
2019-06-26T10:37:55.717Z,33.70
2019-06-26T10:38:55.727Z,32.80
2019-06-26T10:39:55.745Z,31.80
2019-06-26T10:40:55.790Z,32.90
2019-06-26T10:41:55.790Z,32.00
2019-06-26T10:42:55.820Z,33.10
2019-06-26T10:43:55.831Z,33.20
2019-06-26T10:44:55.849Z,33.80
2019-06-26T10:45:55.871Z,32.50
2019-06-26T10:46:55.895Z,31.30
2019-06-26T10:47:55.911Z,32.10
2019-06-26T10:48:55.933Z,31.90
2019-06-26T10:49:55.957Z,29.10
2019-06-26T10:50:58.853Z,30.60
2019-06-26T10:52:56.026Z,29.70
2019-06-26T10:53:56.044Z,28.50
2019-06-26T10:54:56.058Z,26.40
2019-06-26T10:55:56.088Z,27.70
2019-06-26T10:56:56.103Z,27.20
2019-06-26T10:57:56.122Z,26.50
2019-06-26T10:58:56.143Z,27.90
2019-06-26T10:59:56.228Z,28.30
2019-06-26T11:00:56.193Z,25.40
2019-06-26T11:01:56.218Z,23.70
2019-06-26T11:02:56.230Z,21.90
2019-06-26T11:03:56.246Z,21.30
2019-06-26T11:04:56.272Z,21.60
2019-06-26T11:05:56.288Z,22.50
2019-06-26T11:06:56.304Z,21.40
2019-06-26T11:07:56.327Z,20.20
2019-06-26T11:08:56.360Z,22.50
2019-06-26T11:09:56.370Z,24.30
2019-06-26T11:10:56.397Z,23.10
2019-06-26T11:11:56.426Z,23.40
2019-06-26T11:12:56.434Z,22.20
2019-06-26T11:13:56.460Z,20.70
2019-06-26T11:14:56.470Z,20.90
2019-06-26T11:15:56.492Z,21.50
2019-06-26T11:16:56.548Z,21.30
2019-06-26T11:17:56.639Z,24.60
2019-06-26T11:18:56.555Z,27.50
2019-06-26T11:19:56.575Z,26.20
2019-06-26T11:20:56.597Z,27.50
2019-06-26T11:21:56.613Z,26.90
2019-06-26T11:22:56.687Z,29.00
2019-06-26T11:23:56.658Z,28.50
2019-06-26T11:24:56.730Z,29.00
2019-06-26T11:25:56.700Z,28.10
2019-06-26T11:26:56.716Z,28.60
2019-06-26T11:27:56.741Z,28.50
2019-06-26T11:28:56.766Z,27.00
2019-06-26T11:29:56.784Z,28.20
2019-06-26T11:30:56.800Z,27.00
2019-06-26T11:31:56.822Z,26.40
2019-06-26T11:32:56.842Z,25.70
2019-06-26T11:33:56.862Z,24.70
2019-06-26T11:34:57.032Z,23.60
2019-06-26T11:35:56.902Z,23.30
2019-06-26T11:37:03.934Z,23.30
2019-06-26T11:37:56.965Z,25.70
2019-06-26T11:38:56.970Z,24.60
2019-06-26T11:39:56.985Z,27.60
2019-06-26T11:40:57.008Z,25.40
2019-06-26T11:41:57.022Z,23.30
2019-06-26T11:42:57.045Z,21.90
2019-06-26T11:43:57.067Z,23.30
2019-06-26T11:44:57.088Z,24.40
2019-06-26T11:45:57.109Z,22.30
2019-06-26T11:46:57.124Z,23.00
2019-06-26T11:47:57.147Z,23.70
2019-06-26T11:48:57.167Z,23.80
2019-06-26T11:50:00.335Z,23.40
2019-06-26T11:50:57.211Z,21.70
2019-06-26T11:51:57.251Z,21.50
2019-06-26T11:52:57.262Z,22.20
2019-06-26T11:53:59.078Z,21.80
2019-06-26T11:55:02.647Z,22.50
2019-06-26T11:55:57.313Z,20.70
2019-06-26T11:56:57.332Z,20.40
2019-06-26T11:57:57.359Z,20.80
2019-06-26T11:58:57.393Z,20.10
2019-06-26T11:59:57.409Z,19.60
2019-06-26T12:00:57.451Z,20.20
2019-06-26T12:01:57.443Z,21.90
2019-06-26T12:02:57.489Z,20.10
2019-06-26T12:03:57.484Z,20.40
2019-06-26T12:04:57.509Z,21.00
2019-06-26T12:06:11.871Z,19.60
2019-06-26T12:07:57.584Z,21.60
2019-06-26T12:08:57.590Z,24.10
2019-06-26T12:09:57.669Z,23.90
2019-06-26T12:10:57.637Z,24.60
2019-06-26T12:11:57.656Z,22.40
2019-06-26T12:12:57.672Z,21.30
2019-06-26T12:13:57.690Z,20.80
2019-06-26T12:14:57.718Z,20.00
2019-06-26T12:15:57.734Z,19.00
2019-06-26T12:16:57.770Z,20.60
2019-06-26T12:17:57.823Z,19.30
2019-06-26T12:18:57.814Z,19.50
2019-06-26T12:19:57.885Z,18.90
2019-06-26T12:20:57.851Z,18.00
2019-06-26T12:21:57.867Z,17.70
2019-06-26T12:22:57.883Z,17.30
2019-06-26T12:23:57.918Z,16.00
2019-06-26T12:24:57.932Z,15.50
2019-06-26T12:25:57.951Z,17.60
2019-06-26T12:26:57.981Z,18.60
2019-06-26T12:27:57.987Z,17.40
2019-06-26T12:28:58.028Z,15.80
2019-06-26T12:29:58.045Z,15.30
2019-06-26T12:30:58.054Z,16.70
2019-06-26T12:31:58.093Z,15.30
2019-06-26T12:33:03.505Z,15.90
2019-06-26T12:33:58.114Z,15.70
2019-06-26T12:34:58.209Z,14.50
2019-06-26T12:35:58.165Z,14.90
2019-06-26T12:36:58.192Z,13.10
2019-06-26T12:37:58.459Z,11.60
2019-06-26T12:38:58.229Z,11.40
2019-06-26T12:39:58.245Z,11.70
2019-06-26T12:40:58.268Z,12.60
2019-06-26T12:41:58.292Z,14.10
2019-06-26T12:42:58.321Z,12.40
2019-06-26T12:43:58.334Z,14.10
2019-06-26T12:44:58.354Z,14.40
2019-06-26T12:45:58.374Z,14.40
2019-06-26T12:46:58.411Z,13.30
2019-06-26T12:47:58.416Z,13.40
2019-06-26T12:48:58.440Z,13.30
2019-06-26T12:49:58.461Z,13.20
2019-06-26T12:50:58.487Z,11.80
2019-06-26T12:51:58.513Z,10.00
2019-06-26T12:52:58.528Z,9.50
2019-06-26T12:53:58.690Z,10.60
2019-06-26T12:54:58.576Z,10.60
2019-06-26T12:55:58.595Z,9.40